sensor_id;sensor_type;location;lat;lon;timestamp;pressure;altitude;pressure_sealevel;temperature;humidity
11041;BME280;5573;49.592;8.662;2022-09-09T00:02:33;99422.59;;;16.50;100.00
11041;BME280;5573;49.592;8.662;2022-09-09T00:05:29;99417.56;;;16.77;100.00
11041;BME280;5573;49.592;8.662;2022-09-09T00:08:20;99408.88;;;16.75;100.00
11041;BME280;5573;49.592;8.662;2022-09-09T00:11:11;99405.84;;;16.53;100.00
11041;BME280;5573;49.592;8.662;2022-09-09T00:14:03;99368.69;;;16.31;100.00
11041;BME280;5573;49.592;8.662;2022-09-09T00:16:58;99401.91;;;16.51;100.00
11041;BME280;5573;49.592;8.662;2022-09-09T00:19:53;99411.22;;;16.60;100.00
11041;BME280;5573;49.592;8.662;2022-09-09T00:22:48;99413.13;;;16.47;100.00
11041;BME280;5573;49.592;8.662;2022-09-09T00:25:43;99406.59;;;16.37;100.00
11041;BME280;5573;49.592;8.662;2022-09-09T00:28:43;99409.00;;;16.35;100.00
11041;BME280;5573;49.592;8.662;2022-09-09T00:31:34;99412.66;;;16.32;100.00
11041;BME280;5573;49.592;8.662;2022-09-09T00:34:25;99411.19;;;16.44;100.00
11041;BME280;5573;49.592;8.662;2022-09-09T00:37:17;99408.41;;;16.80;100.00
11041;BME280;5573;49.592;8.662;2022-09-09T00:40:18;99410.31;;;17.16;100.00
11041;BME280;5573;49.592;8.662;2022-09-09T00:43:21;99399.53;;;17.18;100.00
11041;BME280;5573;49.592;8.662;2022-09-09T00:46:41;99414.59;;;17.50;100.00
11041;BME280;5573;49.592;8.662;2022-09-09T00:49:43;99418.63;;;17.62;100.00
11041;BME280;5573;49.592;8.662;2022-09-09T00:52:43;99412.41;;;17.71;100.00
11041;BME280;5573;49.592;8.662;2022-09-09T00:55:40;99383.09;;;17.53;100.00
11041;BME280;5573;49.592;8.662;2022-09-09T00:58:29;99412.28;;;17.61;100.00
11041;BME280;5573;49.592;8.662;2022-09-09T01:01:17;99414.31;;;17.44;100.00
11041;BME280;5573;49.592;8.662;2022-09-09T01:04:08;99414.13;;;17.22;100.00
11041;BME280;5573;49.592;8.662;2022-09-09T01:07:03;99419.47;;;17.30;100.00
11041;BME280;5573;49.592;8.662;2022-09-09T01:09:57;99424.41;;;17.38;100.00
11041;BME280;5573;49.592;8.662;2022-09-09T01:12:47;99421.19;;;17.40;100.00
11041;BME280;5573;49.592;8.662;2022-09-09T01:15:40;99387.03;;;17.10;100.00
11041;BME280;5573;49.592;8.662;2022-09-09T01:18:32;99415.44;;;17.47;100.00
11041;BME280;5573;49.592;8.662;2022-09-09T01:21:30;99408.50;;;17.39;100.00
11041;BME280;5573;49.592;8.662;2022-09-09T01:24:27;99409.19;;;17.43;100.00
11041;BME280;5573;49.592;8.662;2022-09-09T01:27:34;99404.81;;;17.29;100.00
11041;BME280;5573;49.592;8.662;2022-09-09T01:30:25;99407.19;;;17.14;100.00
11041;BME280;5573;49.592;8.662;2022-09-09T01:33:17;99403.72;;;17.10;100.00
11041;BME280;5573;49.592;8.662;2022-09-09T01:36:08;99404.56;;;17.07;100.00
11041;BME280;5573;49.592;8.662;2022-09-09T01:39:05;99418.81;;;17.09;100.00
11041;BME280;5573;49.592;8.662;2022-09-09T01:41:55;99413.59;;;17.11;100.00
11041;BME280;5573;49.592;8.662;2022-09-09T01:44:45;99424.72;;;17.11;100.00
11041;BME280;5573;49.592;8.662;2022-09-09T01:47:34;99423.94;;;17.11;100.00
11041;BME280;5573;49.592;8.662;2022-09-09T01:50:37;99421.94;;;17.11;100.00
11041;BME280;5573;49.592;8.662;2022-09-09T01:53:26;99417.59;;;16.94;100.00
11041;BME280;5573;49.592;8.662;2022-09-09T01:56:24;99332.94;;;16.33;100.00
11041;BME280;5573;49.592;8.662;2022-09-09T01:59:27;99414.22;;;17.02;100.00
11041;BME280;5573;49.592;8.662;2022-09-09T02:02:26;99429.41;;;16.98;100.00
11041;BME280;5573;49.592;8.662;2022-09-09T02:05:36;99412.56;;;16.89;100.00
11041;BME280;5573;49.592;8.662;2022-09-09T02:08:36;99416.22;;;17.02;100.00
11041;BME280;5573;49.592;8.662;2022-09-09T02:11:29;99421.16;;;17.11;100.00
11041;BME280;5573;49.592;8.662;2022-09-09T02:14:38;99415.09;;;16.99;100.00
11041;BME280;5573;49.592;8.662;2022-09-09T02:17:31;99410.66;;;17.02;100.00
11041;BME280;5573;49.592;8.662;2022-09-09T02:20:29;99415.94;;;16.96;100.00
11041;BME280;5573;49.592;8.662;2022-09-09T02:23:21;99413.78;;;16.88;100.00
11041;BME280;5573;49.592;8.662;2022-09-09T02:26:14;99421.44;;;16.83;100.00
11041;BME280;5573;49.592;8.662;2022-09-09T02:29:13;99426.56;;;16.85;100.00
11041;BME280;5573;49.592;8.662;2022-09-09T02:32:06;99434.13;;;16.84;100.00
11041;BME280;5573;49.592;8.662;2022-09-09T02:35:02;99426.13;;;16.86;100.00
11041;BME280;5573;49.592;8.662;2022-09-09T02:37:55;99419.69;;;16.90;100.00
11041;BME280;5573;49.592;8.662;2022-09-09T02:40:46;99420.34;;;16.77;100.00
11041;BME280;5573;49.592;8.662;2022-09-09T02:43:35;99425.56;;;16.75;100.00
11041;BME280;5573;49.592;8.662;2022-09-09T02:46:36;99417.47;;;16.64;100.00
11041;BME280;5573;49.592;8.662;2022-09-09T02:49:33;99423.13;;;16.77;100.00
11041;BME280;5573;49.592;8.662;2022-09-09T02:52:27;99428.16;;;16.66;100.00
11041;BME280;5573;49.592;8.662;2022-09-09T02:55:21;99424.69;;;16.62;100.00
11041;BME280;5573;49.592;8.662;2022-09-09T02:58:15;99426.94;;;16.67;100.00
11041;BME280;5573;49.592;8.662;2022-09-09T03:01:12;99431.97;;;16.56;100.00
11041;BME280;5573;49.592;8.662;2022-09-09T03:04:01;99436.47;;;16.50;100.00
11041;BME280;5573;49.592;8.662;2022-09-09T03:06:51;99433.84;;;16.42;100.00
11041;BME280;5573;49.592;8.662;2022-09-09T03:09:42;99412.84;;;16.41;100.00
11041;BME280;5573;49.592;8.662;2022-09-09T03:12:30;99411.78;;;16.35;100.00
11041;BME280;5573;49.592;8.662;2022-09-09T03:15:20;99406.25;;;16.35;100.00
11041;BME280;5573;49.592;8.662;2022-09-09T03:18:09;99402.66;;;16.18;100.00
11041;BME280;5573;49.592;8.662;2022-09-09T03:20:57;99392.66;;;16.04;100.00
11041;BME280;5573;49.592;8.662;2022-09-09T03:23:46;99401.53;;;16.16;100.00
11041;BME280;5573;49.592;8.662;2022-09-09T03:26:35;99405.94;;;16.13;100.00
11041;BME280;5573;49.592;8.662;2022-09-09T03:29:27;99397.97;;;16.15;100.00
11041;BME280;5573;49.592;8.662;2022-09-09T03:32:17;99410.00;;;16.09;100.00
11041;BME280;5573;49.592;8.662;2022-09-09T03:35:06;99408.00;;;15.89;100.00
11041;BME280;5573;49.592;8.662;2022-09-09T03:37:54;99409.66;;;15.87;100.00
11041;BME280;5573;49.592;8.662;2022-09-09T03:40:48;99423.88;;;15.89;100.00
11041;BME280;5573;49.592;8.662;2022-09-09T03:43:38;99415.22;;;15.87;100.00
11041;BME280;5573;49.592;8.662;2022-09-09T03:46:26;99412.78;;;15.89;100.00
11041;BME280;5573;49.592;8.662;2022-09-09T03:49:15;99410.53;;;15.83;100.00
11041;BME280;5573;49.592;8.662;2022-09-09T03:52:04;99409.94;;;15.72;100.00
11041;BME280;5573;49.592;8.662;2022-09-09T03:54:52;99416.31;;;15.69;100.00
11041;BME280;5573;49.592;8.662;2022-09-09T03:57:40;99405.19;;;15.73;100.00
11041;BME280;5573;49.592;8.662;2022-09-09T04:00:30;99412.28;;;15.74;100.00
11041;BME280;5573;49.592;8.662;2022-09-09T04:03:18;99408.22;;;15.58;100.00
11041;BME280;5573;49.592;8.662;2022-09-09T04:06:13;99414.13;;;15.60;100.00
11041;BME280;5573;49.592;8.662;2022-09-09T04:09:04;99409.91;;;15.52;100.00
11041;BME280;5573;49.592;8.662;2022-09-09T04:11:53;99416.03;;;15.43;100.00
11041;BME280;5573;49.592;8.662;2022-09-09T04:14:41;99419.00;;;15.53;100.00
11041;BME280;5573;49.592;8.662;2022-09-09T04:17:31;99414.38;;;15.46;100.00
11041;BME280;5573;49.592;8.662;2022-09-09T04:20:20;99418.13;;;15.36;100.00
11041;BME280;5573;49.592;8.662;2022-09-09T04:23:08;99425.00;;;15.28;100.00
11041;BME280;5573;49.592;8.662;2022-09-09T04:25:58;99420.34;;;15.44;100.00
11041;BME280;5573;49.592;8.662;2022-09-09T04:28:48;99421.13;;;15.45;100.00
11041;BME280;5573;49.592;8.662;2022-09-09T04:31:38;99419.56;;;15.44;100.00
11041;BME280;5573;49.592;8.662;2022-09-09T04:34:30;99425.66;;;15.35;100.00
11041;BME280;5573;49.592;8.662;2022-09-09T04:37:19;99415.56;;;15.25;100.00
11041;BME280;5573;49.592;8.662;2022-09-09T04:40:08;99417.97;;;15.23;100.00
11041;BME280;5573;49.592;8.662;2022-09-09T04:42:57;99431.25;;;15.32;100.00
11041;BME280;5573;49.592;8.662;2022-09-09T04:45:47;99424.38;;;15.40;100.00
11041;BME280;5573;49.592;8.662;2022-09-09T04:48:36;99424.81;;;15.38;100.00
11041;BME280;5573;49.592;8.662;2022-09-09T04:51:27;99445.78;;;15.39;100.00
11041;BME280;5573;49.592;8.662;2022-09-09T04:54:18;99445.69;;;15.43;100.00
11041;BME280;5573;49.592;8.662;2022-09-09T04:57:06;99446.88;;;15.45;100.00
11041;BME280;5573;49.592;8.662;2022-09-09T04:59:55;99451.56;;;15.49;100.00
11041;BME280;5573;49.592;8.662;2022-09-09T05:02:43;99451.06;;;15.54;100.00
11041;BME280;5573;49.592;8.662;2022-09-09T05:05:32;99449.66;;;15.65;100.00
11041;BME280;5573;49.592;8.662;2022-09-09T05:08:23;99451.66;;;15.65;100.00
11041;BME280;5573;49.592;8.662;2022-09-09T05:11:15;99460.22;;;15.74;100.00
11041;BME280;5573;49.592;8.662;2022-09-09T05:14:04;99465.88;;;15.67;100.00
11041;BME280;5573;49.592;8.662;2022-09-09T05:16:52;99455.97;;;15.66;100.00
11041;BME280;5573;49.592;8.662;2022-09-09T05:19:41;99459.97;;;15.65;100.00
11041;BME280;5573;49.592;8.662;2022-09-09T05:22:30;99458.25;;;15.75;100.00
11041;BME280;5573;49.592;8.662;2022-09-09T05:25:19;99455.91;;;15.70;100.00
11041;BME280;5573;49.592;8.662;2022-09-09T05:28:09;99463.47;;;15.69;100.00
11041;BME280;5573;49.592;8.662;2022-09-09T05:30:59;99469.13;;;15.62;100.00
11041;BME280;5573;49.592;8.662;2022-09-09T05:33:49;99465.09;;;15.67;100.00
11041;BME280;5573;49.592;8.662;2022-09-09T05:36:38;99476.06;;;15.74;100.00
11041;BME280;5573;49.592;8.662;2022-09-09T05:39:27;99480.69;;;15.80;100.00
11041;BME280;5573;49.592;8.662;2022-09-09T05:42:17;99482.63;;;16.03;100.00
11041;BME280;5573;49.592;8.662;2022-09-09T05:45:06;99484.28;;;16.01;100.00
11041;BME280;5573;49.592;8.662;2022-09-09T05:47:56;99484.13;;;16.08;100.00
11041;BME280;5573;49.592;8.662;2022-09-09T05:50:52;99484.34;;;16.17;100.00
11041;BME280;5573;49.592;8.662;2022-09-09T05:53:41;99481.84;;;16.23;100.00
11041;BME280;5573;49.592;8.662;2022-09-09T05:56:29;99483.91;;;16.19;100.00
11041;BME280;5573;49.592;8.662;2022-09-09T05:59:21;99487.69;;;16.09;100.00
11041;BME280;5573;49.592;8.662;2022-09-09T06:02:11;99486.59;;;16.22;100.00
11041;BME280;5573;49.592;8.662;2022-09-09T06:05:00;99487.91;;;16.18;100.00
11041;BME280;5573;49.592;8.662;2022-09-09T06:07:52;99501.47;;;16.32;100.00
11041;BME280;5573;49.592;8.662;2022-09-09T06:10:40;99493.34;;;16.41;100.00
11041;BME280;5573;49.592;8.662;2022-09-09T06:13:28;99491.44;;;16.38;100.00
11041;BME280;5573;49.592;8.662;2022-09-09T06:16:18;99492.88;;;16.46;100.00
11041;BME280;5573;49.592;8.662;2022-09-09T06:19:07;99501.63;;;16.45;100.00
11041;BME280;5573;49.592;8.662;2022-09-09T06:21:55;99496.66;;;16.53;100.00
11041;BME280;5573;49.592;8.662;2022-09-09T06:24:43;99500.16;;;16.57;100.00
11041;BME280;5573;49.592;8.662;2022-09-09T06:27:31;99493.22;;;16.49;100.00
11041;BME280;5573;49.592;8.662;2022-09-09T06:30:19;99501.97;;;16.27;100.00
11041;BME280;5573;49.592;8.662;2022-09-09T06:33:08;99484.69;;;16.19;100.00
11041;BME280;5573;49.592;8.662;2022-09-09T06:35:57;99488.31;;;16.36;100.00
11041;BME280;5573;49.592;8.662;2022-09-09T06:38:46;99484.00;;;16.52;100.00
11041;BME280;5573;49.592;8.662;2022-09-09T06:41:34;99492.69;;;16.90;100.00
11041;BME280;5573;49.592;8.662;2022-09-09T06:44:26;99487.50;;;17.25;100.00
11041;BME280;5573;49.592;8.662;2022-09-09T06:47:21;99489.38;;;17.61;100.00
11041;BME280;5573;49.592;8.662;2022-09-09T06:50:11;99500.72;;;17.83;100.00
11041;BME280;5573;49.592;8.662;2022-09-09T06:52:59;99499.59;;;17.80;100.00
11041;BME280;5573;49.592;8.662;2022-09-09T06:55:49;99504.06;;;17.61;100.00
11041;BME280;5573;49.592;8.662;2022-09-09T06:58:37;99506.13;;;17.74;100.00
11041;BME280;5573;49.592;8.662;2022-09-09T07:01:35;99514.91;;;17.72;100.00
11041;BME280;5573;49.592;8.662;2022-09-09T07:04:28;99503.78;;;17.88;100.00
11041;BME280;5573;49.592;8.662;2022-09-09T07:07:17;99489.22;;;17.97;100.00
11041;BME280;5573;49.592;8.662;2022-09-09T07:10:06;99515.47;;;18.38;100.00
11041;BME280;5573;49.592;8.662;2022-09-09T07:12:55;99514.38;;;18.36;100.00
11041;BME280;5573;49.592;8.662;2022-09-09T07:15:44;99507.47;;;18.40;100.00
11041;BME280;5573;49.592;8.662;2022-09-09T07:18:33;99512.88;;;18.18;100.00
11041;BME280;5573;49.592;8.662;2022-09-09T07:21:22;99509.84;;;18.13;100.00
11041;BME280;5573;49.592;8.662;2022-09-09T07:24:13;99509.75;;;18.58;100.00
11041;BME280;5573;49.592;8.662;2022-09-09T07:27:03;99504.31;;;18.80;100.00
11041;BME280;5573;49.592;8.662;2022-09-09T07:29:52;99517.59;;;19.02;100.00
11041;BME280;5573;49.592;8.662;2022-09-09T07:32:41;99504.78;;;18.79;100.00
11041;BME280;5573;49.592;8.662;2022-09-09T07:35:29;99505.47;;;18.28;100.00
11041;BME280;5573;49.592;8.662;2022-09-09T07:38:18;99507.63;;;18.62;100.00
11041;BME280;5573;49.592;8.662;2022-09-09T07:41:09;99513.13;;;18.92;100.00
11041;BME280;5573;49.592;8.662;2022-09-09T07:44:04;99519.25;;;18.99;100.00
11041;BME280;5573;49.592;8.662;2022-09-09T07:46:53;99512.97;;;18.69;100.00
11041;BME280;5573;49.592;8.662;2022-09-09T07:49:47;99510.91;;;18.32;100.00
11041;BME280;5573;49.592;8.662;2022-09-09T07:52:40;99500.78;;;17.96;100.00
11041;BME280;5573;49.592;8.662;2022-09-09T07:55:28;99511.09;;;18.12;100.00
11041;BME280;5573;49.592;8.662;2022-09-09T07:58:18;99513.00;;;18.27;100.00
11041;BME280;5573;49.592;8.662;2022-09-09T08:01:08;99518.06;;;18.33;100.00
11041;BME280;5573;49.592;8.662;2022-09-09T08:03:58;99524.28;;;18.24;100.00
11041;BME280;5573;49.592;8.662;2022-09-09T08:06:50;99523.75;;;18.42;100.00
11041;BME280;5573;49.592;8.662;2022-09-09T08:09:41;99528.63;;;19.05;100.00
11041;BME280;5573;49.592;8.662;2022-09-09T08:12:35;99526.22;;;19.55;100.00
11041;BME280;5573;49.592;8.662;2022-09-09T08:15:25;99529.09;;;19.64;99.47
11041;BME280;5573;49.592;8.662;2022-09-09T08:18:13;99533.34;;;19.56;99.28
11041;BME280;5573;49.592;8.662;2022-09-09T08:21:06;99528.66;;;19.66;99.01
11041;BME280;5573;49.592;8.662;2022-09-09T08:23:56;99548.31;;;19.49;98.00
11041;BME280;5573;49.592;8.662;2022-09-09T08:26:46;99551.16;;;19.11;100.00
11041;BME280;5573;49.592;8.662;2022-09-09T08:29:38;99552.56;;;18.77;100.00
11041;BME280;5573;49.592;8.662;2022-09-09T08:32:27;99552.97;;;18.63;100.00
11041;BME280;5573;49.592;8.662;2022-09-09T08:35:16;99548.63;;;18.49;100.00
11041;BME280;5573;49.592;8.662;2022-09-09T08:38:04;99545.69;;;18.40;100.00
11041;BME280;5573;49.592;8.662;2022-09-09T08:41:12;99531.94;;;17.91;100.00
11041;BME280;5573;49.592;8.662;2022-09-09T08:44:07;99530.41;;;17.57;100.00
11041;BME280;5573;49.592;8.662;2022-09-09T08:47:01;99535.78;;;17.64;100.00
11041;BME280;5573;49.592;8.662;2022-09-09T08:50:05;99534.16;;;17.96;100.00
11041;BME280;5573;49.592;8.662;2022-09-09T08:52:59;99535.75;;;18.26;100.00
11041;BME280;5573;49.592;8.662;2022-09-09T08:55:51;99543.09;;;18.75;100.00
11041;BME280;5573;49.592;8.662;2022-09-09T08:58:49;99540.25;;;18.91;100.00
11041;BME280;5573;49.592;8.662;2022-09-09T09:01:49;99550.38;;;19.23;100.00
11041;BME280;5573;49.592;8.662;2022-09-09T09:05:07;99549.59;;;19.10;100.00
11041;BME280;5573;49.592;8.662;2022-09-09T09:08:06;99553.91;;;19.37;100.00
11041;BME280;5573;49.592;8.662;2022-09-09T09:11:00;99559.28;;;19.31;100.00
11041;BME280;5573;49.592;8.662;2022-09-09T09:13:53;99530.88;;;18.85;100.00
11041;BME280;5573;49.592;8.662;2022-09-09T09:16:49;99562.31;;;19.11;100.00
11041;BME280;5573;49.592;8.662;2022-09-09T09:19:41;99564.84;;;19.18;100.00
11041;BME280;5573;49.592;8.662;2022-09-09T09:22:41;99542.34;;;19.13;100.00
11041;BME280;5573;49.592;8.662;2022-09-09T09:25:39;99542.00;;;19.23;100.00
11041;BME280;5573;49.592;8.662;2022-09-09T09:28:32;99536.78;;;19.86;100.00
11041;BME280;5573;49.592;8.662;2022-09-09T09:31:28;99529.56;;;20.42;99.35
11041;BME280;5573;49.592;8.662;2022-09-09T09:34:16;99522.91;;;21.02;92.66
11041;BME280;5573;49.592;8.662;2022-09-09T09:37:14;99549.22;;;21.14;88.51
11041;BME280;5573;49.592;8.662;2022-09-09T09:40:12;99558.56;;;21.20;87.61
11041;BME280;5573;49.592;8.662;2022-09-09T09:43:00;99541.91;;;21.16;87.47
11041;BME280;5573;49.592;8.662;2022-09-09T09:45:50;99536.63;;;21.18;85.81
11041;BME280;5573;49.592;8.662;2022-09-09T09:49:00;99534.59;;;20.78;88.04
11041;BME280;5573;49.592;8.662;2022-09-09T09:51:49;99507.69;;;20.62;90.72
11041;BME280;5573;49.592;8.662;2022-09-09T09:54:41;99519.06;;;20.24;94.40
11041;BME280;5573;49.592;8.662;2022-09-09T09:57:32;99531.47;;;20.01;97.18
11041;BME280;5573;49.592;8.662;2022-09-09T10:00:25;99543.47;;;20.10;95.39
11041;BME280;5573;49.592;8.662;2022-09-09T10:03:24;99541.19;;;19.96;98.08
11041;BME280;5573;49.592;8.662;2022-09-09T10:06:14;99537.94;;;19.63;99.89
11041;BME280;5573;49.592;8.662;2022-09-09T10:09:03;99557.28;;;19.32;100.00
11041;BME280;5573;49.592;8.662;2022-09-09T10:12:00;99557.63;;;19.08;100.00
11041;BME280;5573;49.592;8.662;2022-09-09T10:14:59;99556.38;;;18.83;100.00
11041;BME280;5573;49.592;8.662;2022-09-09T10:17:54;99569.41;;;18.86;100.00
11041;BME280;5573;49.592;8.662;2022-09-09T10:20:51;99569.22;;;18.52;100.00
11041;BME280;5573;49.592;8.662;2022-09-09T10:23:50;99564.03;;;18.24;100.00
11041;BME280;5573;49.592;8.662;2022-09-09T10:26:47;99561.56;;;17.81;100.00
11041;BME280;5573;49.592;8.662;2022-09-09T10:29:54;99542.38;;;17.70;100.00
11041;BME280;5573;49.592;8.662;2022-09-09T10:32:49;99526.13;;;17.85;100.00
11041;BME280;5573;49.592;8.662;2022-09-09T10:35:43;99532.03;;;18.16;100.00
11041;BME280;5573;49.592;8.662;2022-09-09T10:38:39;99535.47;;;18.49;100.00
11041;BME280;5573;49.592;8.662;2022-09-09T10:41:39;99525.66;;;18.45;100.00
11041;BME280;5573;49.592;8.662;2022-09-09T10:44:48;99536.41;;;18.72;100.00
11041;BME280;5573;49.592;8.662;2022-09-09T10:47:56;99532.28;;;19.28;100.00
11041;BME280;5573;49.592;8.662;2022-09-09T10:50:54;99525.09;;;19.65;94.91
11041;BME280;5573;49.592;8.662;2022-09-09T10:54:11;99520.31;;;19.88;96.98
11041;BME280;5573;49.592;8.662;2022-09-09T10:57:08;99513.00;;;20.25;93.02
11041;BME280;5573;49.592;8.662;2022-09-09T11:00:03;99515.28;;;20.40;90.86
11041;BME280;5573;49.592;8.662;2022-09-09T11:02:56;99502.41;;;20.64;95.68
11041;BME280;5573;49.592;8.662;2022-09-09T11:05:46;99494.81;;;20.65;93.23
11041;BME280;5573;49.592;8.662;2022-09-09T11:08:38;99477.72;;;20.63;96.48
11041;BME280;5573;49.592;8.662;2022-09-09T11:11:29;99492.53;;;20.82;99.73
11041;BME280;5573;49.592;8.662;2022-09-09T11:14:25;99496.06;;;21.14;84.23
11041;BME280;5573;49.592;8.662;2022-09-09T11:17:17;99500.00;;;21.25;78.48
11041;BME280;5573;49.592;8.662;2022-09-09T11:20:11;99485.63;;;20.96;80.52
11041;BME280;5573;49.592;8.662;2022-09-09T11:23:03;99506.13;;;21.02;74.58
11041;BME280;5573;49.592;8.662;2022-09-09T11:25:55;99500.63;;;21.29;79.74
11041;BME280;5573;49.592;8.662;2022-09-09T11:28:54;99489.97;;;21.65;76.03
11041;BME280;5573;49.592;8.662;2022-09-09T11:32:00;99486.09;;;21.81;72.12
11041;BME280;5573;49.592;8.662;2022-09-09T11:34:57;99503.66;;;22.00;69.59
11041;BME280;5573;49.592;8.662;2022-09-09T11:38:02;99489.91;;;22.39;66.94
11041;BME280;5573;49.592;8.662;2022-09-09T11:40:58;99498.31;;;22.48;60.79
11041;BME280;5573;49.592;8.662;2022-09-09T11:43:49;99495.56;;;21.74;65.25
11041;BME280;5573;49.592;8.662;2022-09-09T11:46:39;99489.72;;;21.22;69.24
11041;BME280;5573;49.592;8.662;2022-09-09T11:49:40;99494.16;;;21.01;73.67
11041;BME280;5573;49.592;8.662;2022-09-09T11:52:36;99487.47;;;20.89;73.69
11041;BME280;5573;49.592;8.662;2022-09-09T11:55:28;99490.34;;;21.17;72.15
11041;BME280;5573;49.592;8.662;2022-09-09T11:58:18;99490.81;;;21.25;70.38
11041;BME280;5573;49.592;8.662;2022-09-09T12:01:15;99489.69;;;21.13;74.86
11041;BME280;5573;49.592;8.662;2022-09-09T12:07:27;99482.75;;;20.77;68.56
11041;BME280;5573;49.592;8.662;2022-09-09T12:10:23;99498.00;;;20.85;70.64
11041;BME280;5573;49.592;8.662;2022-09-09T12:13:19;99482.63;;;20.81;71.73
11041;BME280;5573;49.592;8.662;2022-09-09T12:16:28;99495.66;;;20.84;73.22
11041;BME280;5573;49.592;8.662;2022-09-09T12:19:19;99495.56;;;21.06;72.44
11041;BME280;5573;49.592;8.662;2022-09-09T12:22:18;99500.50;;;20.92;70.65
11041;BME280;5573;49.592;8.662;2022-09-09T12:25:16;99502.41;;;20.64;70.41
11041;BME280;5573;49.592;8.662;2022-09-09T12:28:11;99498.97;;;20.60;73.64
11041;BME280;5573;49.592;8.662;2022-09-09T12:31:08;99506.56;;;20.38;75.98
11041;BME280;5573;49.592;8.662;2022-09-09T12:34:09;99491.91;;;20.24;84.77
11041;BME280;5573;49.592;8.662;2022-09-09T12:37:01;99501.53;;;20.01;81.55
11041;BME280;5573;49.592;8.662;2022-09-09T12:39:55;99551.41;;;19.64;86.40
11041;BME280;5573;49.592;8.662;2022-09-09T12:42:43;99534.16;;;18.67;100.00
11041;BME280;5573;49.592;8.662;2022-09-09T12:45:32;99520.72;;;17.94;100.00
11041;BME280;5573;49.592;8.662;2022-09-09T12:48:29;99548.38;;;17.19;100.00
11041;BME280;5573;49.592;8.662;2022-09-09T12:51:21;99550.72;;;16.68;100.00
11041;BME280;5573;49.592;8.662;2022-09-09T12:54:13;99554.19;;;16.52;100.00
11041;BME280;5573;49.592;8.662;2022-09-09T12:57:02;99534.22;;;16.77;100.00
11041;BME280;5573;49.592;8.662;2022-09-09T12:59:51;99526.69;;;17.14;100.00
11041;BME280;5573;49.592;8.662;2022-09-09T13:02:50;99506.56;;;17.72;100.00
11041;BME280;5573;49.592;8.662;2022-09-09T13:05:40;99502.97;;;18.72;100.00
11041;BME280;5573;49.592;8.662;2022-09-09T13:08:28;99489.25;;;19.29;100.00
11041;BME280;5573;49.592;8.662;2022-09-09T13:11:17;99496.81;;;19.28;100.00
11041;BME280;5573;49.592;8.662;2022-09-09T13:14:15;99496.75;;;18.94;100.00
11041;BME280;5573;49.592;8.662;2022-09-09T13:17:06;99487.47;;;18.58;100.00
11041;BME280;5573;49.592;8.662;2022-09-09T13:20:05;99488.94;;;18.21;100.00
11041;BME280;5573;49.592;8.662;2022-09-09T13:22:55;99487.59;;;17.83;100.00
11041;BME280;5573;49.592;8.662;2022-09-09T13:25:53;99494.41;;;17.66;100.00
11041;BME280;5573;49.592;8.662;2022-09-09T13:28:41;99507.47;;;17.53;100.00
11041;BME280;5573;49.592;8.662;2022-09-09T13:31:32;99519.22;;;17.27;100.00
11041;BME280;5573;49.592;8.662;2022-09-09T13:34:29;99536.03;;;16.88;100.00
11041;BME280;5573;49.592;8.662;2022-09-09T13:37:23;99504.03;;;16.23;100.00
11041;BME280;5573;49.592;8.662;2022-09-09T13:40:18;99501.38;;;15.76;100.00
11041;BME280;5573;49.592;8.662;2022-09-09T13:43:15;99496.56;;;15.56;100.00
11041;BME280;5573;49.592;8.662;2022-09-09T13:46:24;99517.47;;;15.61;100.00
11041;BME280;5573;49.592;8.662;2022-09-09T13:49:20;99508.16;;;16.15;100.00
11041;BME280;5573;49.592;8.662;2022-09-09T13:52:10;99511.53;;;16.99;100.00
11041;BME280;5573;49.592;8.662;2022-09-09T13:55:00;99514.63;;;17.37;100.00
11041;BME280;5573;49.592;8.662;2022-09-09T13:57:53;99516.72;;;17.79;100.00
11041;BME280;5573;49.592;8.662;2022-09-09T14:00:42;99514.56;;;17.86;100.00
11041;BME280;5573;49.592;8.662;2022-09-09T14:03:30;99510.47;;;17.75;100.00
11041;BME280;5573;49.592;8.662;2022-09-09T14:06:18;99509.25;;;17.76;100.00
11041;BME280;5573;49.592;8.662;2022-09-09T14:09:12;99490.22;;;17.74;100.00
11041;BME280;5573;49.592;8.662;2022-09-09T14:12:02;99489.09;;;17.88;100.00
11041;BME280;5573;49.592;8.662;2022-09-09T14:14:51;99487.34;;;17.78;100.00
11041;BME280;5573;49.592;8.662;2022-09-09T14:17:39;99480.72;;;17.88;100.00
11041;BME280;5573;49.592;8.662;2022-09-09T14:20:27;99473.00;;;18.08;100.00
11041;BME280;5573;49.592;8.662;2022-09-09T14:23:16;99469.38;;;18.24;100.00
11041;BME280;5573;49.592;8.662;2022-09-09T14:26:04;99472.53;;;18.52;100.00
11041;BME280;5573;49.592;8.662;2022-09-09T14:28:52;99469.31;;;18.66;100.00
11041;BME280;5573;49.592;8.662;2022-09-09T14:31:43;99470.75;;;18.58;100.00
11041;BME280;5573;49.592;8.662;2022-09-09T14:34:31;99460.50;;;18.68;100.00
11041;BME280;5573;49.592;8.662;2022-09-09T14:37:20;99456.16;;;18.80;100.00
11041;BME280;5573;49.592;8.662;2022-09-09T14:40:08;99455.63;;;18.98;100.00
11041;BME280;5573;49.592;8.662;2022-09-09T14:42:57;99451.81;;;18.92;100.00
11041;BME280;5573;49.592;8.662;2022-09-09T14:45:45;99451.00;;;18.65;100.00
11041;BME280;5573;49.592;8.662;2022-09-09T14:48:36;99455.38;;;18.66;100.00
11041;BME280;5573;49.592;8.662;2022-09-09T14:51:26;99449.91;;;18.76;100.00
11041;BME280;5573;49.592;8.662;2022-09-09T14:54:15;99451.28;;;18.84;100.00
11041;BME280;5573;49.592;8.662;2022-09-09T14:57:03;99447.03;;;18.92;100.00
11041;BME280;5573;49.592;8.662;2022-09-09T14:59:50;99444.47;;;18.72;100.00
11041;BME280;5573;49.592;8.662;2022-09-09T15:02:39;99452.91;;;18.30;100.00
11041;BME280;5573;49.592;8.662;2022-09-09T15:05:28;99461.69;;;18.28;100.00
11041;BME280;5573;49.592;8.662;2022-09-09T15:08:18;99482.22;;;18.05;100.00
11041;BME280;5573;49.592;8.662;2022-09-09T15:11:06;99453.97;;;17.78;100.00
11041;BME280;5573;49.592;8.662;2022-09-09T15:13:54;99453.22;;;17.61;100.00
11041;BME280;5573;49.592;8.662;2022-09-09T15:16:42;99459.75;;;17.54;100.00
11041;BME280;5573;49.592;8.662;2022-09-09T15:19:30;99450.47;;;17.44;100.00
11041;BME280;5573;49.592;8.662;2022-09-09T15:22:20;99443.97;;;17.35;100.00